Airfield :
LOGIN :

Register | Disclaimer

   EN    FR    IT 

 










Legend :    VFR   Marginal VFR   IFR   Intensive IFR   Very Intensive IFR
Visi :
Ceiling :
>= 8 km
>= 3000ft
5 to 8 km
1000 to 3000 ft
1500m to 5 km
500 to 1000 ft
800 to 1500m
200 to 500 ft
< 800m
< 200 ft
Symbols :   Thunderstorms  Fog  Heavy snow  Heavy precipitations  Wind > 20 kt
SIGMETs :     Misc.  Thunderstorms  Icing  Turbulence  Mountain Waves  Volcanic Ashes






- Airport Elevation : 15 ft
- IATA code : ZTH


LGZA - Dionysios Solomos

CURRENT METAR :
  • 041350Z 16010KT 9999 FEW012 FEW018TCU SCT025 BKN070 18/13 Q1021

EXPIRED METARs :
  • 041250Z 17009KT 9999 FEW012 SCT025 BKN070 18/13 Q1021

TAF TAF LGZA
Valid from the 04 at 15:00 until the 05 at 00:00 UTC


041400Z 0415/0424 15014KT 9999 FEW018TCU SCT025 BKN070
TEMPO 0415/0424 15015G25KT
TEMPO 0415/0424 5000 RA FEW018TCU BKN025 BKN070
TEMPO 0415/0424 3000 TSRA FEW008 FEW018CB BKN020 BKN070



MET'MAP, your aeronautical weather chart ! - Copyright ORBIFLY December 2007 - Disclaimer

ORBIFLY MET'MAP TEAM :

Programming & Development : Alexandra Zaïnal
Original concept : Baudouin d'Aumeries
Technical & hardware support : Manuel Goepfert
Assistance : Marc-Olivier Méhu




SOURCES & CREDITS :

   NOAA